Airfield :
LOGIN :

Register | Disclaimer

   EN    FR    IT 

 










Legend :    VFR   Marginal VFR   IFR   Intensive IFR   Very Intensive IFR
Visi :
Ceiling :
>= 8 km
>= 3000ft
5 to 8 km
1000 to 3000 ft
1500m to 5 km
500 to 1000 ft
800 to 1500m
200 to 500 ft
< 800m
< 200 ft
Symbols :   Thunderstorms  Fog  Heavy snow  Heavy precipitations  Wind > 20 kt
SIGMETs :     Misc.  Thunderstorms  Icing  Turbulence  Mountain Waves  Volcanic Ashes







- Airport Elevation : 306 ft
- IATA code : EMA
- Download approach charts


EGNX - Nottingham East Midlands

CURRENT METAR :
  • 250050Z 31003KT 4000 BR BKN030 17/17 Q1018

EXPIRED METARs :
  • 250020Z 00000KT 5000 HZ SCT027 18/17 Q1018
  • 242350Z VRB01KT 7000 BKN026 18/17 Q1018
  • 242320Z 00000KT 7000 BKN027 18/17 Q1018
  • 242250Z 00000KT 7000 BKN025 19/17 Q1018
  • 242220Z VRB01KT 7000 FEW030 19/17 Q1018

TAF TAF EGNX
Valid from the 25 at 00:00 until the 26 at 00:00 UTC


242253Z 2500/2524 01006KT 9999 SCT020
TEMPO 2500/2515 6000 RA BKN008
PROB30
TEMPO 2500/2508 3000 +TSRA BKN004 BKN025CB
TEMPO 2515/2524 BKN012
PROB30
TEMPO 2520/2524 8000 BKN009
ATIS : +44 1332 852 852 (ext 3201)
No reported NOTAMs for that airfield.
2 SIGMETs reported for the London FIR (EGTT) :
 
Embedded thunderstorms
EGTT SIGMET 07 VALID 242100/250100 EGRR
EGTT LONDON FIR EMBD TS FCST WI N5000 W00200 - N5040 W00130 - N5040 E00030 - N5016 E00027 - N5000 W00015 - N5000 W00200 TOP FL360 MOV NNE 20KT NC=
Embedded thunderstorms
EGTT SIGMET 01 VALID 250100/250500 EGRR
EGTT LONDON FIR EMBD TS FCST WI N5130 W00100 - N5135 E00100 - N5030 E00101 - N5000 W00015 - N5000 W00200 - N5130 W00100 TOP FL360 MOV NNE 20KT NC=



MET'MAP, your aeronautical weather chart ! - Copyright ORBIFLY December 2007 - Disclaimer

ORBIFLY MET'MAP TEAM :

Programming & Development : Alexandra Zaïnal
Concept & Development : Baudouin d'Aumeries
Co-Development & Prog : Marc-Olivier Méhu
Technical & hardware support : Manuel Goepfert

Contact : metmap@orbifly.com




SOURCES & CREDITS :

   NOAA